Time;durP1;ratioP1;P1;durP2;ratioP2;P2;SDS_P1;SDS_P2;PMS_P1;PMS_P2;Temp;Humidity;BMP_temperature;BMP_pressure;BME280_temperature;BME280_humidity;BME280_pressure;Samples;Min_cycle;Max_cycle;Signal;HPM_P1;HPM_P2
2021/10/01 00:00:28;;;;;;;;;;;16.90;76.50;;;;;;4984536;28;96102;-48
2021/10/01 00:03:02;;;;;;;;;;;16.90;76.50;;;;;;4989429;28;95987;-49
2021/10/01 00:05:32;;;;;;;;;;;16.90;76.50;;;;;;4988388;28;97900;-47
2021/10/01 00:08:02;;;;;;;;;;;16.90;76.50;;;;;;4990170;28;95915;-47
2021/10/01 00:10:33;;;;;;;;;;;16.90;76.50;;;;;;4985036;28;97778;-48
2021/10/01 00:13:03;;;;;;;;;;;17.00;68.10;;;;;;4987272;28;95526;-48
2021/10/01 00:15:35;;;;;;;;;;;16.90;76.40;;;;;;4987989;28;96300;-48
2021/10/01 00:18:06;;;;;;;;;;;16.90;76.40;;;;;;4992556;28;95871;-48
2021/10/01 00:20:36;;;;;;;;;;;16.90;76.50;;;;;;4992339;28;98004;-48
2021/10/01 00:23:07;;;;;;;;;;;16.90;76.50;;;;;;4991593;28;95883;-47
2021/10/01 00:25:38;;;;;;;;;;;16.90;76.50;;;;;;4993348;28;95856;-48
2021/10/01 00:28:07;;;;;;;;;;;16.90;76.40;;;;;;4992653;28;96416;-47
2021/10/01 00:30:36;;;;;;;;;;;17.00;76.40;;;;;;4987901;28;95955;-47
2021/10/01 00:33:06;;;;;;;;;;;17.00;76.50;;;;;;4992202;28;95790;-47
2021/10/01 00:35:36;;;;;;;;;;;17.00;76.40;;;;;;4991172;28;95749;-48
2021/10/01 00:38:08;;;;;;;;;;;17.00;76.40;;;;;;4989365;28;97502;-47
2021/10/01 00:40:39;;;;;;;;;;;17.00;76.40;;;;;;4989416;28;97281;-47
2021/10/01 00:43:09;;;;;;;;;;;17.00;76.50;;;;;;4991399;28;95802;-47
2021/10/01 00:45:39;;;;;;;;;;;17.00;76.50;;;;;;4988306;28;95692;-48
2021/10/01 00:48:09;;;;;;;;;;;17.00;76.40;;;;;;5024055;27;97921;-47
2021/10/01 00:50:39;;;;;;;;;;;17.10;76.50;;;;;;4990147;28;95585;-48
2021/10/01 00:53:10;;;;;;;;;;;17.10;76.50;;;;;;4990661;28;95699;-48
2021/10/01 00:55:40;;;;;;;;;;;17.10;76.60;;;;;;4991472;28;95209;-48
2021/10/01 00:58:11;;;;;;;;;;;17.10;76.50;;;;;;4990300;28;96651;-47
2021/10/01 01:01:28;;;;;;;;;;;17.10;76.50;;;;;;4985348;28;95939;-47
2021/10/01 01:03:44;;;;;;;;;;;17.10;76.60;;;;;;4979285;28;97116;-46
2021/10/01 01:06:24;;;;;;;;;;;17.10;76.50;;;;;;4990624;28;95425;-46
2021/10/01 01:09:00;;;;;;;;;;;17.10;76.60;;;;;;5023435;27;98063;-47
2021/10/01 01:11:53;;;;;;;;;;;17.20;76.60;;;;;;4974530;28;96234;-47
2021/10/01 01:14:31;;;;;;;;;;;17.20;76.70;;;;;;5005069;28;95704;-47
2021/10/01 01:17:02;;;;;;;;;;;17.20;76.60;;;;;;5017796;27;95999;-47
2021/10/01 01:19:51;;;;;;;;;;;17.30;76.70;;;;;;4989044;28;100440;-47
2021/10/01 01:22:37;;;;;;;;;;;17.30;76.70;;;;;;5023457;27;95599;-47
2021/10/01 01:25:27;;;;;;;;;;;17.30;76.60;;;;;;4987219;28;96607;-47
2021/10/01 01:28:00;;;;;;;;;;;17.30;76.70;;;;;;5016973;27;95922;-47
2021/10/01 01:30:35;;;;;;;;;;;17.30;76.70;;;;;;5015258;27;95892;-47
2021/10/01 01:33:07;;;;;;;;;;;17.30;76.70;;;;;;4968692;28;103447;-48
2021/10/01 01:35:37;;;;;;;;;;;17.40;76.60;;;;;;4960830;28;95811;-47
2021/10/01 01:38:11;;;;;;;;;;;17.40;76.50;;;;;;4961656;28;95970;-47
2021/10/01 01:40:45;;;;;;;;;;;17.40;76.50;;;;;;4966986;28;96536;-49
2021/10/01 01:43:14;;;;;;;;;;;17.50;68.00;;;;;;4961490;28;95945;-46
2021/10/01 01:45:44;;;;;;;;;;;17.50;76.70;;;;;;4961245;28;95920;-47
2021/10/01 01:48:14;;;;;;;;;;;17.50;76.60;;;;;;4970527;28;95408;-48
2021/10/01 01:50:45;;;;;;;;;;;17.50;76.60;;;;;;4968877;28;96208;-49
2021/10/01 01:53:19;;;;;;;;;;;17.50;76.40;;;;;;4966176;28;95933;-57
2021/10/01 01:55:50;;;;;;;;;;;17.50;76.40;;;;;;4968891;28;95898;-49
2021/10/01 01:58:22;;;;;;;;;;;17.60;76.40;;;;;;4965251;28;95478;-47
2021/10/01 02:01:15;;;;;;;;;;;17.60;76.30;;;;;;4974821;28;98036;-57
2021/10/01 02:04:08;;;;;;;;;;;17.60;76.30;;;;;;4997269;28;95954;-48
2021/10/01 02:06:38;;;;;;;;;;;17.60;76.30;;;;;;4969458;28;95741;-56
2021/10/01 02:09:11;;;;;;;;;;;17.70;76.30;;;;;;4969238;28;95682;-57
2021/10/01 02:11:44;;;;;;;;;;;17.60;76.40;;;;;;4979280;28;96616;-57
2021/10/01 02:14:20;;;;;;;;;;;17.70;76.30;;;;;;4968368;28;97602;-50
2021/10/01 02:16:50;;;;;;;;;;;17.70;76.20;;;;;;4986891;28;95930;-57
2021/10/01 02:19:23;;;;;;;;;;;17.70;76.20;;;;;;4982879;28;95425;-54
2021/10/01 02:21:54;;;;;;;;;;;17.70;76.20;;;;;;4999772;28;97971;-48
2021/10/01 02:24:28;;;;;;;;;;;17.70;76.30;;;;;;4969092;28;97683;-58
2021/10/01 02:27:05;;;;;;;;;;;17.80;76.20;;;;;;4968221;28;95713;-57
2021/10/01 02:29:37;;;;;;;;;;;17.80;76.20;;;;;;4965504;28;96208;-46
2021/10/01 02:32:25;;;;;;;;;;;17.80;76.20;;;;;;4981247;28;98141;-56
2021/10/01 02:34:55;;;;;;;;;;;17.80;76.20;;;;;;4994099;28;97159;-57
2021/10/01 02:37:27;;;;;;;;;;;17.80;76.20;;;;;;4967083;28;95388;-58
2021/10/01 02:40:00;;;;;;;;;;;17.90;76.20;;;;;;4993898;28;95344;-57
2021/10/01 02:42:31;;;;;;;;;;;17.90;76.10;;;;;;4990807;28;98224;-57
2021/10/01 02:45:01;;;;;;;;;;;17.90;76.10;;;;;;4969415;28;95225;-57
2021/10/01 02:47:32;;;;;;;;;;;17.90;76.10;;;;;;4962681;28;95778;-57
2021/10/01 02:50:07;;;;;;;;;;;17.90;76.00;;;;;;4963808;28;95852;-53
2021/10/01 02:52:59;;;;;;;;;;;17.90;76.00;;;;;;4961784;28;95991;-56
2021/10/01 02:55:37;;;;;;;;;;;18.00;76.00;;;;;;4964327;28;97480;-47
2021/10/01 02:58:16;;;;;;;;;;;18.00;76.20;;;;;;4991074;28;95578;-57
2021/10/01 03:00:49;;;;;;;;;;;18.00;75.90;;;;;;4997554;28;95727;-57
2021/10/01 03:03:23;;;;;;;;;;;18.00;76.00;;;;;;4978269;28;96041;-56
2021/10/01 03:05:58;;;;;;;;;;;18.00;76.10;;;;;;4967882;28;95665;-57
2021/10/01 03:08:29;;;;;;;;;;;18.10;76.10;;;;;;4993372;28;95377;-58
2021/10/01 03:11:01;;;;;;;;;;;18.10;76.20;;;;;;4956053;28;95743;-46
2021/10/01 03:13:31;;;;;;;;;;;18.10;76.20;;;;;;4963140;28;98220;-46
2021/10/01 03:16:03;;;;;;;;;;;18.20;76.40;;;;;;4984210;28;95696;-57
2021/10/01 03:18:34;;;;;;;;;;;18.20;76.20;;;;;;4990231;28;97386;-47
2021/10/01 03:21:08;;;;;;;;;;;18.20;76.30;;;;;;4962353;28;97022;-47
2021/10/01 03:23:42;;;;;;;;;;;18.20;76.20;;;;;;4961425;28;98008;-47
2021/10/01 03:26:15;;;;;;;;;;;18.30;76.30;;;;;;4964984;28;97115;-56
2021/10/01 03:28:45;;;;;;;;;;;18.30;76.20;;;;;;4998314;28;95827;-57
2021/10/01 03:31:14;;;;;;;;;;;18.30;76.20;;;;;;4965585;28;95632;-58
2021/10/01 03:33:45;;;;;;;;;;;18.30;76.20;;;;;;4980577;28;97856;-57
2021/10/01 03:36:17;;;;;;;;;;;18.40;76.20;;;;;;4957368;28;97431;-47
2021/10/01 03:38:53;;;;;;;;;;;18.40;76.80;;;;;;4966542;28;95809;-47
2021/10/01 03:41:24;;;;;;;;;;;18.40;77.10;;;;;;4987985;28;97719;-46
2021/10/01 03:43:56;;;;;;;;;;;18.40;77.20;;;;;;4966939;28;96193;-46
2021/10/01 03:46:26;;;;;;;;;;;18.40;77.50;;;;;;4954603;28;97230;-57
2021/10/01 03:48:57;;;;;;;;;;;18.40;77.40;;;;;;4968014;28;95900;-47
2021/10/01 03:51:27;;;;;;;;;;;18.40;77.60;;;;;;4961420;28;95601;-57
2021/10/01 03:53:58;;;;;;;;;;;18.40;77.60;;;;;;4968607;28;98396;-46
2021/10/01 03:56:29;;;;;;;;;;;18.40;77.50;;;;;;4961543;28;96046;-58
2021/10/01 03:58:59;;;;;;;;;;;18.50;77.90;;;;;;4963048;28;95793;-57
2021/10/01 04:01:31;;;;;;;;;;;18.50;77.70;;;;;;4964113;28;95920;-47
2021/10/01 04:04:01;;;;;;;;;;;18.50;77.90;;;;;;4967113;28;97852;-53
2021/10/01 04:06:33;;;;;;;;;;;18.50;77.70;;;;;;4977562;28;97829;-46
2021/10/01 04:09:05;;;;;;;;;;;18.50;77.80;;;;;;4961545;28;95905;-45
2021/10/01 04:11:38;;;;;;;;;;;18.50;77.90;;;;;;4986429;28;95483;-46
2021/10/01 04:14:10;;;;;;;;;;;18.50;78.00;;;;;;4970247;28;96067;-48
2021/10/01 04:16:41;;;;;;;;;;;18.60;77.90;;;;;;4962869;28;97760;-47
2021/10/01 04:19:11;;;;;;;;;;;18.50;78.10;;;;;;4964451;28;95827;-47
2021/10/01 04:22:02;;;;;;;;;;;18.60;78.20;;;;;;4980637;28;97991;-46
2021/10/01 04:24:49;;;;;;;;;;;18.60;78.10;;;;;;4973271;28;96056;-47
2021/10/01 04:27:20;;;;;;;;;;;18.60;78.00;;;;;;4994094;28;96180;-48
2021/10/01 04:29:50;;;;;;;;;;;18.70;78.10;;;;;;4967087;28;95825;-46
2021/10/01 04:32:22;;;;;;;;;;;18.70;78.10;;;;;;4989063;28;95751;-46
2021/10/01 04:35:14;;;;;;;;;;;18.70;78.10;;;;;;4995591;28;97776;-47
2021/10/01 04:37:42;;;;;;;;;;;18.70;78.10;;;;;;4998355;28;97808;-55
2021/10/01 04:40:12;;;;;;;;;;;18.70;78.10;;;;;;4940090;28;101091;-47
2021/10/01 04:42:42;;;;;;;;;;;18.70;77.70;;;;;;4960411;28;96508;-52
2021/10/01 04:45:12;;;;;;;;;;;18.70;77.50;;;;;;4988080;28;96099;-51
2021/10/01 04:47:41;;;;;;;;;;;18.80;77.60;;;;;;4980403;28;95840;-49
2021/10/01 04:50:12;;;;;;;;;;;18.80;77.40;;;;;;4965432;28;95863;-51
2021/10/01 04:52:43;;;;;;;;;;;18.90;77.50;;;;;;4961713;28;95849;-50
2021/10/01 04:55:16;;;;;;;;;;;18.90;77.50;;;;;;4986251;28;96057;-50
2021/10/01 04:57:46;;;;;;;;;;;19.00;77.40;;;;;;4962366;28;95869;-50
2021/10/01 05:00:46;;;;;;;;;;;19.00;78.00;;;;;;4959599;28;96350;-47
2021/10/01 05:03:35;;;;;;;;;;;19.00;77.70;;;;;;4957339;28;98164;-57
2021/10/01 05:06:32;;;;;;;;;;;19.10;77.80;;;;;;4967566;28;96998;-49
2021/10/01 05:09:14;;;;;;;;;;;19.10;77.80;;;;;;4955993;28;95885;-47
2021/10/01 05:12:03;;;;;;;;;;;19.10;77.80;;;;;;4955818;28;95911;-48
2021/10/01 05:14:52;;;;;;;;;;;19.20;77.80;;;;;;4956446;28;95617;-47
2021/10/01 05:17:42;;;;;;;;;;;19.20;77.80;;;;;;4960551;28;95788;-55
2021/10/01 05:20:32;;;;;;;;;;;19.30;77.70;;;;;;4963197;28;98453;-47
2021/10/01 05:23:13;;;;;;;;;;;19.30;77.70;;;;;;4979806;28;96006;-47
2021/10/01 05:25:44;;;;;;;;;;;19.20;77.60;;;;;;4967616;28;96184;-48
2021/10/01 05:28:14;;;;;;;;;;;19.30;77.60;;;;;;4966921;28;98412;-49
2021/10/01 05:30:44;;;;;;;;;;;19.30;77.60;;;;;;4961372;28;96934;-47
2021/10/01 05:33:15;;;;;;;;;;;19.40;77.60;;;;;;4955404;28;95887;-47
2021/10/01 05:35:45;;;;;;;;;;;19.40;77.60;;;;;;4960048;28;95833;-48
2021/10/01 05:38:16;;;;;;;;;;;19.40;77.40;;;;;;4966339;28;96027;-48
2021/10/01 05:40:46;;;;;;;;;;;19.40;77.50;;;;;;4965468;28;97742;-46
2021/10/01 05:43:16;;;;;;;;;;;19.40;77.40;;;;;;4966639;28;98063;-56
2021/10/01 05:45:45;;;;;;;;;;;19.50;77.30;;;;;;4995144;28;96686;-46
2021/10/01 05:48:35;;;;;;;;;;;19.50;77.30;;;;;;4982810;28;96160;-48
2021/10/01 05:51:36;;;;;;;;;;;19.50;77.30;;;;;;4944888;28;96313;-48
2021/10/01 05:54:25;;;;;;;;;;;19.50;77.30;;;;;;4955536;28;95813;-46
2021/10/01 05:57:14;;;;;;;;;;;19.50;77.00;;;;;;4960728;28;95832;-47
2021/10/01 06:00:00;;;;;;;;;;;19.60;77.00;;;;;;4963692;28;97950;-46
2021/10/01 06:02:42;;;;;;;;;;;19.60;76.90;;;;;;4956800;28;95400;-53
2021/10/01 06:05:13;;;;;;;;;;;19.60;76.80;;;;;;4957910;28;95749;-47
2021/10/01 06:07:44;;;;;;;;;;;19.70;76.70;;;;;;4962986;28;95445;-48
2021/10/01 06:10:15;;;;;;;;;;;19.70;76.50;;;;;;4953161;28;96545;-48
2021/10/01 06:12:45;;;;;;;;;;;19.80;76.50;;;;;;4955327;28;95896;-47
2021/10/01 06:15:17;;;;;;;;;;;19.80;76.60;;;;;;4959981;28;96250;-48
2021/10/01 06:17:50;;;;;;;;;;;19.80;76.30;;;;;;4964593;28;96060;-47
2021/10/01 06:20:23;;;;;;;;;;;19.80;76.20;;;;;;4965814;28;96750;-49
2021/10/01 06:22:54;;;;;;;;;;;19.80;76.10;;;;;;4968316;28;95405;-46
2021/10/01 06:25:25;;;;;;;;;;;19.90;76.20;;;;;;4967917;28;96160;-47
2021/10/01 06:27:55;;;;;;;;;;;19.90;76.10;;;;;;4968747;28;95768;-46
2021/10/01 06:30:25;;;;;;;;;;;19.90;76.00;;;;;;4961022;28;96033;-46
2021/10/01 06:32:57;;;;;;;;;;;19.90;75.90;;;;;;4966789;28;95432;-45
2021/10/01 06:35:27;;;;;;;;;;;20.00;75.90;;;;;;4963832;28;95432;-46
2021/10/01 06:37:57;;;;;;;;;;;20.00;75.90;;;;;;4964502;28;95950;-46
2021/10/01 06:40:27;;;;;;;;;;;20.00;76.00;;;;;;4960829;28;95908;-47
2021/10/01 06:43:00;;;;;;;;;;;20.00;75.90;;;;;;4967630;28;95725;-56
2021/10/01 06:45:32;;;;;;;;;;;20.10;75.90;;;;;;4957202;28;95712;-48
2021/10/01 07:21:00;;;;;;;;;;;20.10;75.70;;;;;;4970112;28;95724;-48
2021/10/01 07:22:01;;;;;;;;;;;20.20;67.20;;;;;;4966841;28;95271;-44
2021/10/01 08:20:55;;;;;;;;;;;20.20;75.80;;;;;;4963333;28;96456;-52
2021/10/01 08:23:26;;;;;;;;;;;20.20;75.80;;;;;;4966923;28;96116;-49
2021/10/01 08:25:56;;;;;;;;;;;20.20;75.70;;;;;;4963948;28;95842;-58
2021/10/01 08:28:26;;;;;;;;;;;20.20;75.80;;;;;;4965936;28;95710;-49
2021/10/01 08:31:15;;;;;;;;;;;20.20;75.70;;;;;;4964862;28;96292;-56
2021/10/01 08:33:46;;;;;;;;;;;20.20;75.70;;;;;;4983717;28;95468;-48
2021/10/01 08:36:18;;;;;;;;;;;20.20;75.70;;;;;;4987754;28;96351;-48
2021/10/01 08:38:58;;;;;;;;;;;20.20;76.00;;;;;;4985756;28;95755;-48
2021/10/01 08:41:28;;;;;;;;;;;20.10;76.20;;;;;;4981386;28;96143;-56
2021/10/01 08:43:59;;;;;;;;;;;20.10;76.10;;;;;;4984670;28;96086;-57
2021/10/01 08:46:30;;;;;;;;;;;20.20;76.10;;;;;;4982976;27;95767;-48
2021/10/01 08:49:01;;;;;;;;;;;20.20;76.10;;;;;;4990023;28;95860;-48
2021/10/01 08:51:31;;;;;;;;;;;20.10;76.10;;;;;;5019700;27;95810;-49
2021/10/01 08:54:03;;;;;;;;;;;20.20;76.20;;;;;;4984610;28;95844;-52
2021/10/01 08:56:32;;;;;;;;;;;20.20;76.20;;;;;;5020594;27;98156;-57
2021/10/01 08:59:03;;;;;;;;;;;20.10;76.30;;;;;;4987227;28;95201;-49
2021/10/01 09:01:35;;;;;;;;;;;20.20;68.80;;;;;;5011915;27;96956;-50
2021/10/01 09:04:07;;;;;;;;;;;20.10;76.50;;;;;;4982182;28;96241;-51
2021/10/01 09:06:38;;;;;;;;;;;20.10;76.60;;;;;;4980031;28;95706;-48
2021/10/01 09:09:10;;;;;;;;;;;20.10;76.80;;;;;;4980086;28;95762;-57
2021/10/01 09:11:46;;;;;;;;;;;20.10;76.90;;;;;;4978126;28;96093;-49
2021/10/01 09:14:21;;;;;;;;;;;20.10;76.90;;;;;;5011310;27;96176;-48
2021/10/01 09:16:51;;;;;;;;;;;20.10;76.90;;;;;;4977816;28;95826;-51
2021/10/01 09:19:23;;;;;;;;;;;20.10;76.90;;;;;;4983351;28;95951;-47
2021/10/01 09:21:54;;;;;;;;;;;20.00;76.90;;;;;;5013031;27;95858;-57
2021/10/01 09:24:27;;;;;;;;;;;20.00;77.00;;;;;;4979016;28;95895;-57
2021/10/01 09:26:58;;;;;;;;;;;20.00;76.90;;;;;;5009636;27;95830;-48
2021/10/01 09:29:33;;;;;;;;;;;20.00;76.90;;;;;;4980984;28;95734;-57
2021/10/01 09:32:13;;;;;;;;;;;20.00;76.60;;;;;;4982211;28;95803;-58
2021/10/01 09:34:46;;;;;;;;;;;20.00;76.60;;;;;;5000411;28;98630;-58
2021/10/01 09:37:22;;;;;;;;;;;20.00;76.50;;;;;;4988578;28;96122;-58
2021/10/01 09:39:54;;;;;;;;;;;20.00;76.60;;;;;;4986100;28;95957;-49
2021/10/01 09:42:33;;;;;;;;;;;20.00;76.50;;;;;;4988061;28;96060;-57
2021/10/01 09:45:08;;;;;;;;;;;20.00;76.70;;;;;;4988549;28;95631;-49
2021/10/01 09:47:47;;;;;;;;;;;20.00;76.70;;;;;;5018327;27;95582;-47
2021/10/01 09:50:18;;;;;;;;;;;20.00;76.60;;;;;;4990458;28;95866;-47
2021/10/01 09:52:50;;;;;;;;;;;20.00;76.60;;;;;;4989090;28;95910;-48
2021/10/01 09:55:22;;;;;;;;;;;20.00;76.50;;;;;;4996650;28;95431;-49
2021/10/01 09:58:00;;;;;;;;;;;20.00;68.80;;;;;;4981345;28;96630;-52
2021/10/01 10:00:34;;;;;;;;;;;20.00;76.70;;;;;;4984184;28;95539;-59
2021/10/01 10:03:05;;;;;;;;;;;19.90;76.60;;;;;;4986858;28;95971;-58
2021/10/01 10:05:55;;;;;;;;;;;19.90;76.60;;;;;;5021661;27;95530;-47
2021/10/01 10:08:35;;;;;;;;;;;19.90;76.50;;;;;;4989070;28;96007;-58
2021/10/01 10:11:09;;;;;;;;;;;19.90;76.40;;;;;;4981355;28;96059;-57
2021/10/01 10:13:43;;;;;;;;;;;19.80;76.40;;;;;;4981408;28;95886;-57
2021/10/01 10:16:19;;;;;;;;;;;19.80;76.40;;;;;;4982459;28;95897;-57
2021/10/01 10:18:51;;;;;;;;;;;19.80;76.40;;;;;;4984954;28;95230;-48
2021/10/01 10:21:22;;;;;;;;;;;19.70;76.30;;;;;;4983700;28;96019;-57
2021/10/01 10:23:53;;;;;;;;;;;19.70;76.30;;;;;;4985982;28;96423;-56
2021/10/01 10:26:25;;;;;;;;;;;19.70;76.30;;;;;;4986919;28;95823;-57
2021/10/01 10:28:57;;;;;;;;;;;19.60;76.20;;;;;;4983493;28;95505;-57
2021/10/01 10:31:31;;;;;;;;;;;19.60;76.20;;;;;;4979101;28;95870;-56
2021/10/01 10:34:07;;;;;;;;;;;19.60;76.20;;;;;;4981856;28;95657;-48
2021/10/01 10:36:44;;;;;;;;;;;19.60;76.20;;;;;;4988075;28;95253;-57
2021/10/01 10:39:15;;;;;;;;;;;19.60;76.30;;;;;;4981902;28;96290;-58
2021/10/01 10:41:49;;;;;;;;;;;19.50;76.20;;;;;;4984893;28;95673;-57
2021/10/01 10:44:38;;;;;;;;;;;19.50;76.20;;;;;;5012545;27;95810;-58
2021/10/01 10:47:11;;;;;;;;;;;19.50;76.10;;;;;;4981792;28;96043;-47
2021/10/01 10:49:41;;;;;;;;;;;19.40;76.00;;;;;;4978962;28;95834;-57
2021/10/01 10:52:18;;;;;;;;;;;19.40;75.90;;;;;;4984162;28;95980;-58
2021/10/01 10:54:50;;;;;;;;;;;19.40;75.90;;;;;;4977275;28;95819;-58
2021/10/01 10:57:26;;;;;;;;;;;19.40;75.90;;;;;;4986519;28;95391;-59
2021/10/01 11:00:02;;;;;;;;;;;19.40;75.90;;;;;;4986768;28;95910;-58
2021/10/01 11:02:44;;;;;;;;;;;19.30;76.00;;;;;;4979613;28;96117;-57
2021/10/01 11:05:26;;;;;;;;;;;19.30;76.00;;;;;;4982547;28;96791;-48
2021/10/01 11:07:57;;;;;;;;;;;19.30;76.00;;;;;;4988635;28;95516;-50
2021/10/01 11:10:41;;;;;;;;;;;19.30;76.00;;;;;;4987101;28;96014;-48
2021/10/01 11:13:23;;;;;;;;;;;19.30;76.00;;;;;;4984776;28;95707;-49
2021/10/01 11:16:09;;;;;;;;;;;19.30;76.00;;;;;;4986684;28;97908;-57
2021/10/01 11:18:46;;;;;;;;;;;19.30;76.00;;;;;;4989944;28;98225;-47
2021/10/01 11:21:29;;;;;;;;;;;19.20;75.90;;;;;;4989779;28;95821;-48
2021/10/01 11:24:06;;;;;;;;;;;19.20;76.00;;;;;;4990638;28;95768;-48
2021/10/01 11:26:45;;;;;;;;;;;19.20;76.00;;;;;;4988794;28;96545;-48
2021/10/01 11:29:21;;;;;;;;;;;19.20;76.00;;;;;;4989147;28;95961;-51
2021/10/01 11:31:56;;;;;;;;;;;19.10;76.00;;;;;;4983455;28;98001;-47
2021/10/01 11:34:37;;;;;;;;;;;19.10;76.10;;;;;;4990236;28;95640;-47
2021/10/01 11:37:24;;;;;;;;;;;19.10;76.00;;;;;;4989005;28;96199;-47
2021/10/01 11:39:59;;;;;;;;;;;19.10;76.10;;;;;;4987136;28;95288;-49
2021/10/01 11:42:40;;;;;;;;;;;19.00;76.10;;;;;;4989739;28;95977;-58
2021/10/01 11:45:14;;;;;;;;;;;19.10;68.60;;;;;;4985641;28;95684;-47
2021/10/01 11:47:54;;;;;;;;;;;19.00;76.30;;;;;;4985075;28;98807;-47
2021/10/01 11:50:29;;;;;;;;;;;19.00;76.20;;;;;;4986975;28;95395;-48
2021/10/01 11:53:00;;;;;;;;;;;19.00;76.20;;;;;;4983996;28;95596;-47
2021/10/01 11:55:34;;;;;;;;;;;19.00;76.30;;;;;;4984774;28;95711;-47
2021/10/01 11:58:18;;;;;;;;;;;19.00;76.20;;;;;;4978588;28;95938;-47
2021/10/01 12:00:50;;;;;;;;;;;18.90;76.20;;;;;;4975490;28;95580;-48
2021/10/01 12:03:21;;;;;;;;;;;18.90;76.30;;;;;;4987122;28;95826;-47
2021/10/01 12:05:55;;;;;;;;;;;18.90;76.30;;;;;;4987465;28;95842;-48
2021/10/01 12:08:29;;;;;;;;;;;18.90;76.30;;;;;;4987500;28;95890;-47
2021/10/01 12:11:02;;;;;;;;;;;18.90;76.20;;;;;;4980514;28;95867;-47
2021/10/01 12:13:33;;;;;;;;;;;18.80;76.30;;;;;;4983864;28;95818;-47
2021/10/01 12:16:09;;;;;;;;;;;18.80;76.30;;;;;;5017584;27;95860;-48
2021/10/01 12:18:44;;;;;;;;;;;18.80;76.30;;;;;;4991843;28;95895;-47
2021/10/01 12:21:19;;;;;;;;;;;18.80;76.30;;;;;;5022270;27;97026;-49
2021/10/01 12:23:51;;;;;;;;;;;18.70;76.30;;;;;;4989180;28;95311;-49
2021/10/01 12:26:21;;;;;;;;;;;18.80;76.40;;;;;;4989426;28;95789;-49
2021/10/01 12:28:56;;;;;;;;;;;18.70;76.40;;;;;;4990090;28;95984;-47
2021/10/01 12:31:30;;;;;;;;;;;18.70;76.40;;;;;;4988468;28;95659;-47
2021/10/01 12:34:03;;;;;;;;;;;18.70;76.40;;;;;;4991595;28;95852;-47
2021/10/01 12:36:36;;;;;;;;;;;18.70;76.80;;;;;;4992021;28;95882;-49
2021/10/01 12:39:07;;;;;;;;;;;18.70;76.50;;;;;;4990520;28;97782;-47
2021/10/01 12:41:37;;;;;;;;;;;18.60;76.60;;;;;;4991836;28;95957;-48
2021/10/01 12:44:13;;;;;;;;;;;18.70;76.60;;;;;;4992827;28;95668;-48
2021/10/01 12:46:50;;;;;;;;;;;18.60;76.60;;;;;;4985954;28;96011;-47
2021/10/01 12:49:27;;;;;;;;;;;18.60;76.50;;;;;;4991557;28;95924;-49
2021/10/01 12:52:08;;;;;;;;;;;18.60;76.60;;;;;;4987693;28;95775;-49
2021/10/01 12:54:42;;;;;;;;;;;18.60;76.70;;;;;;4988622;28;95363;-48
2021/10/01 12:57:12;;;;;;;;;;;18.50;76.60;;;;;;4991557;28;96007;-48
2021/10/01 12:59:44;;;;;;;;;;;18.60;76.80;;;;;;4991301;28;96572;-48
2021/10/01 13:02:20;;;;;;;;;;;18.60;76.80;;;;;;4986491;28;96497;-48
2021/10/01 13:04:52;;;;;;;;;;;18.50;76.70;;;;;;4991707;28;95277;-50
2021/10/01 13:07:25;;;;;;;;;;;18.50;76.80;;;;;;4992103;28;96265;-47
2021/10/01 13:09:58;;;;;;;;;;;18.50;76.80;;;;;;4984318;28;96461;-52
2021/10/01 13:12:32;;;;;;;;;;;18.50;76.70;;;;;;4983932;28;98416;-46
2021/10/01 13:15:22;;;;;;;;;;;18.50;76.70;;;;;;4993532;27;96574;-58
2021/10/01 13:18:14;;;;;;;;;;;18.50;77.00;;;;;;4982072;28;95351;-45
2021/10/01 13:20:51;;;;;;;;;;;18.40;77.10;;;;;;4985296;28;96538;-58
2021/10/01 13:23:28;;;;;;;;;;;18.50;77.30;;;;;;4984211;28;95382;-47
2021/10/01 13:26:11;;;;;;;;;;;18.50;77.50;;;;;;5020098;27;95758;-48
2021/10/01 13:28:43;;;;;;;;;;;18.50;77.30;;;;;;4988390;28;96049;-49
2021/10/01 13:31:15;;;;;;;;;;;18.60;77.70;;;;;;4981619;28;95645;-48
2021/10/01 13:33:47;;;;;;;;;;;18.50;77.70;;;;;;4978426;28;95412;-57
2021/10/01 13:36:17;;;;;;;;;;;18.60;77.50;;;;;;4979773;28;95931;-49
2021/10/01 13:38:48;;;;;;;;;;;18.60;77.60;;;;;;4979536;28;95663;-51
2021/10/01 13:41:20;;;;;;;;;;;18.60;77.60;;;;;;5011860;27;96232;-48
2021/10/01 13:43:51;;;;;;;;;;;18.60;69.60;;;;;;5012353;27;96015;-48
2021/10/01 13:46:21;;;;;;;;;;;18.60;77.80;;;;;;4977007;28;95707;-48
2021/10/01 13:48:52;;;;;;;;;;;18.60;78.00;;;;;;4981557;28;95807;-48
2021/10/01 13:51:22;;;;;;;;;;;18.60;78.00;;;;;;5010560;27;96123;-48
2021/10/01 13:53:53;;;;;;;;;;;18.60;78.00;;;;;;4981300;28;96197;-50
2021/10/01 13:56:22;;;;;;;;;;;18.60;77.90;;;;;;4978758;28;95189;-48
2021/10/01 13:58:52;;;;;;;;;;;18.60;77.90;;;;;;4980301;28;96192;-47
2021/10/01 14:01:23;;;;;;;;;;;18.50;77.90;;;;;;4976436;28;96568;-47
2021/10/01 14:03:54;;;;;;;;;;;18.50;77.90;;;;;;4982105;28;95708;-47
2021/10/01 14:06:25;;;;;;;;;;;18.60;78.00;;;;;;4989374;28;96324;-47
2021/10/01 14:09:01;;;;;;;;;;;18.60;78.00;;;;;;4990542;28;95938;-47
2021/10/01 14:11:52;;;;;;;;;;;18.50;78.00;;;;;;4978458;28;95831;-49
2021/10/01 14:14:22;;;;;;;;;;;18.50;75.40;;;;;;4989906;28;95901;-48
2021/10/01 14:16:55;;;;;;;;;;;18.50;77.90;;;;;;4984216;28;95540;-47
2021/10/01 14:19:26;;;;;;;;;;;18.50;78.00;;;;;;4989765;28;95716;-48
2021/10/01 14:21:57;;;;;;;;;;;18.50;78.00;;;;;;4989386;28;98314;-48
2021/10/01 14:24:28;;;;;;;;;;;18.50;78.00;;;;;;4989648;28;97222;-48
2021/10/01 14:26:59;;;;;;;;;;;18.40;78.10;;;;;;4989385;28;95711;-49
2021/10/01 14:29:28;;;;;;;;;;;18.40;78.00;;;;;;4987190;28;95261;-47
2021/10/01 14:31:58;;;;;;;;;;;18.40;78.10;;;;;;4986378;28;96222;-47
2021/10/01 14:34:29;;;;;;;;;;;18.40;78.10;;;;;;4986903;28;95603;-48
2021/10/01 14:36:59;;;;;;;;;;;18.40;78.00;;;;;;5022203;27;96087;-47
2021/10/01 14:39:29;;;;;;;;;;;18.40;78.10;;;;;;4990875;28;95800;-47
2021/10/01 14:42:00;;;;;;;;;;;18.40;78.10;;;;;;4989318;28;95926;-48
2021/10/01 14:44:30;;;;;;;;;;;18.40;78.10;;;;;;4987151;28;95776;-47
2021/10/01 14:47:01;;;;;;;;;;;18.40;78.10;;;;;;4986231;28;95660;-48
2021/10/01 14:49:30;;;;;;;;;;;18.40;78.20;;;;;;4989849;28;95344;-47
2021/10/01 14:52:00;;;;;;;;;;;18.30;78.10;;;;;;4988508;28;95954;-49
2021/10/01 14:54:32;;;;;;;;;;;18.30;78.20;;;;;;4988732;28;95610;-48
2021/10/01 14:57:03;;;;;;;;;;;18.30;78.10;;;;;;4990798;28;95794;-48
2021/10/01 14:59:36;;;;;;;;;;;18.30;78.20;;;;;;4990432;28;95342;-47
2021/10/01 15:02:07;;;;;;;;;;;18.30;78.30;;;;;;4985369;28;95914;-48
2021/10/01 15:04:37;;;;;;;;;;;18.20;78.30;;;;;;4989987;28;97226;-47
2021/10/01 15:07:07;;;;;;;;;;;18.20;78.30;;;;;;4987062;28;96018;-47
2021/10/01 15:09:37;;;;;;;;;;;18.30;78.40;;;;;;4985356;28;95917;-49
2021/10/01 15:12:11;;;;;;;;;;;18.20;78.40;;;;;;4978816;28;96540;-47
2021/10/01 15:14:41;;;;;;;;;;;18.20;78.30;;;;;;4988267;28;95808;-47
2021/10/01 15:17:12;;;;;;;;;;;18.20;78.40;;;;;;4983331;28;96101;-47
2021/10/01 15:19:42;;;;;;;;;;;18.20;78.40;;;;;;4990514;28;95866;-47
2021/10/01 15:22:13;;;;;;;;;;;18.20;78.40;;;;;;4985912;28;97037;-48
2021/10/01 15:24:42;;;;;;;;;;;18.20;78.50;;;;;;4987530;28;95925;-48
2021/10/01 15:27:13;;;;;;;;;;;18.20;78.60;;;;;;4988242;28;95758;-47
2021/10/01 15:30:14;;;;;;;;;;;18.20;78.60;;;;;;4990476;28;95795;-47
2021/10/01 15:32:47;;;;;;;;;;;18.20;78.50;;;;;;4975572;28;95872;-47
2021/10/01 15:35:21;;;;;;;;;;;18.10;78.50;;;;;;4990074;28;95725;-49
2021/10/01 15:37:52;;;;;;;;;;;18.10;78.60;;;;;;4991644;28;95665;-47
2021/10/01 15:40:23;;;;;;;;;;;18.10;78.60;;;;;;4992430;28;95711;-48
2021/10/01 15:42:55;;;;;;;;;;;18.10;78.60;;;;;;4991369;28;95859;-47
2021/10/01 15:45:25;;;;;;;;;;;18.10;78.60;;;;;;4989757;28;98948;-49
2021/10/01 15:47:54;;;;;;;;;;;18.10;78.70;;;;;;4992284;28;95858;-48
2021/10/01 15:50:25;;;;;;;;;;;18.10;78.60;;;;;;4994002;28;95543;-47
2021/10/01 15:52:56;;;;;;;;;;;18.10;78.60;;;;;;4992211;28;96522;-47
2021/10/01 15:55:26;;;;;;;;;;;18.00;78.60;;;;;;4993284;28;95824;-48
2021/10/01 15:57:56;;;;;;;;;;;18.00;78.60;;;;;;4989895;28;95800;-50
2021/10/01 16:00:27;;;;;;;;;;;18.00;78.60;;;;;;4988730;28;97724;-47
2021/10/01 16:02:58;;;;;;;;;;;18.00;78.70;;;;;;4991944;28;95975;-47
2021/10/01 16:05:29;;;;;;;;;;;18.00;78.70;;;;;;4992580;28;95955;-48
2021/10/01 16:07:59;;;;;;;;;;;18.00;78.70;;;;;;4992410;28;95758;-47
2021/10/01 16:10:33;;;;;;;;;;;18.00;78.70;;;;;;4988712;28;96314;-47
2021/10/01 16:13:04;;;;;;;;;;;18.00;78.70;;;;;;4987342;28;98660;-47
2021/10/01 16:15:36;;;;;;;;;;;18.00;78.80;;;;;;4986689;28;95976;-47
2021/10/01 16:18:07;;;;;;;;;;;18.00;78.80;;;;;;4992571;28;95419;-47
2021/10/01 16:20:37;;;;;;;;;;;18.00;78.80;;;;;;4993046;28;95699;-48
2021/10/01 16:23:08;;;;;;;;;;;18.00;78.90;;;;;;4986597;28;95913;-47